Home > Products > Valid Products > TAF

000
FTUS42 KRAH 251731
TAFINT
TAF
KINT 251731Z 2518/2618 30005KT P6SM SKC
      TEMPO 2612/2615 30012G18KT
     FM261500 30013G20KT P6SM SKC=



000
FTUS42 KRAH 251731
TAFGSO
TAF
KGSO 251731Z 2518/2618 27005KT P6SM SKC
      TEMPO 2612/2615 30012G18KT
     FM261500 30013G20KT P6SM SKC=



000
FTUS42 KRAH 251731
TAFRWI
TAF
KRWI 251731Z 2518/2618 27005KT P6SM SKC
      TEMPO 2612/2615 30012G20KT
     FM261500 30015G24KT P6SM SKC=



000
FTUS42 KRAH 251731
TAFRDU
TAF
KRDU 251731Z 2518/2618 27005KT P6SM SKC
      TEMPO 2612/2615 30012G19KT
     FM261500 30013G22KT P6SM SKC=



000
FTUS42 KRAH 251731
TAFFAY
TAF
KFAY 251731Z 2518/2618 27005KT P6SM SKC
      TEMPO 2612/2615 30012KT
     FM261500 30013G20KT P6SM SKC=



000
FTUS42 KRAH 251225 AAA
TAFRWI
TAF AMD
KRWI 251225Z 2512/2612 00000KT 3SM BR SKC
     FM251300 VRB05KT P6SM SKC=



000
FTUS42 KRAH 251122
TAFGSO
TAF
KGSO 251122Z 2512/2612 VRB04KT P6SM FEW250
     FM251800 26007KT P6SM SCT060=



000
FTUS42 KRAH 251122
TAFINT
TAF
KINT 251122Z 2512/2612 VRB04KT P6SM SKC
     FM251800 26007KT P6SM SCT060=



000
FTUS42 KRAH 251122
TAFRDU
TAF
KRDU 251122Z 2512/2612 VRB04KT P6SM SKC
     FM251800 25005KT P6SM SCT060=



000
FTUS42 KRAH 251122
TAFRWI
TAF
KRWI 251122Z 2512/2612 VRB04KT 1 1/2SM BR SKC
      TEMPO 2512/2513 5SM BR
     FM251300 VRB04KT P6SM SKC
     FM252000 25005KT P6SM SCT060=



000
FTUS42 KRAH 251122
TAFFAY
TAF
KFAY 251122Z 2512/2612 VRB04KT P6SM SKC
     FM252000 25005KT P6SM SCT060=



000
FTUS42 KRAH 251122
TAFRWI
TAF
KRWI 251122Z 2512/2612 VRB04KT 1 1/2SM BR SKC
      TEMPO 2512/2513 5SM BR
     FM251300 VRB04KT P6SM SKC
     FM252000 25005KT P6SM SCT060=



000
FTUS42 KRAH 251122
TAFINT
TAF
KINT 251122Z 2512/2612 VRB04KT P6SM SKC
     FM251800 26007KT P6SM SCT060=



000
FTUS42 KRAH 251122
TAFGSO
TAF
KGSO 251122Z 2512/2612 VRB04KT P6SM FEW250
     FM251800 26007KT P6SM SCT060=



000
FTUS42 KRAH 251122
TAFFAY
TAF
KFAY 251122Z 2512/2612 VRB04KT P6SM SKC
     FM252000 25005KT P6SM SCT060=



000
FTUS42 KRAH 251122
TAFRDU
TAF
KRDU 251122Z 2512/2612 VRB04KT P6SM SKC
     FM251800 25005KT P6SM SCT060=



000
FTUS42 KRAH 251115 AAF
TAFRWI
TAF AMD
KRWI 251115Z 2511/2606 00000KT 1 1/2SM BR SKC
      TEMPO 2511/2513 5SM BR
     FM251300 VRB03KT P6SM SKC
     FM252000 25005KT P6SM SCT060=



000
FTUS42 KRAH 251115 AAF
TAFRWI
TAF AMD
KRWI 251115Z 2511/2606 00000KT 1 1/2SM BR SKC
      TEMPO 2511/2513 5SM BR
     FM251300 VRB03KT P6SM SKC
     FM252000 25005KT P6SM SCT060=



000
FTUS42 KRAH 251001 AAE
TAFRWI
TAF AMD
KRWI 251001Z 2510/2606 00000KT 1/2SM FG VV002
      TEMPO 2510/2513 5SM BR
     FM251300 VRB03KT P6SM SKC
     FM252000 25005KT P6SM SCT060=



000
FTUS42 KRAH 250932 AAD
TAFRWI
TAF AMD
KRWI 250932Z 2510/2606 00000KT 1 1/2SM BR SKC
      TEMPO 2510/2513 5SM BR
     FM251300 VRB03KT P6SM SKC
     FM252000 25005KT P6SM SCT060=



000
FTUS42 KRAH 250931 AAA
TAFRDU
TAF AMD
KRDU 250931Z 2510/2606 VRB03KT P6SM SKC
     FM251800 25005KT P6SM SCT060=



000
FTUS42 KRAH 250931 AAA
TAFGSO
TAF AMD
KGSO 250931Z 2510/2606 VRB04KT P6SM SKC
     FM251800 26007KT P6SM SCT060=



000
FTUS42 KRAH 250713 AAC
TAFRWI
TAF AMD
KRWI 250713Z 2507/2606 VRB02KT P6SM BCFG SKC
      TEMPO 2507/2510 1/2SM FG SKC
     FM251200 VRB03KT P6SM SKC
     FM252000 25005KT P6SM SCT060=



000
FTUS42 KRAH 250559 AAB
TAFRWI
TAF AMD
KRWI 250559Z 2506/2606 VRB02KT P6SM BCFG SKC
      TEMPO 2506/2510 2SM BR BCFG SKC
     FM251200 VRB03KT P6SM SKC
     FM252000 25005KT P6SM SCT060=



000
FTUS42 KRAH 250547 AAA
TAFRWI
TAF AMD
KRWI 250547Z 2506/2606 VRB02KT 2SM BR BCFG SKC
     FM251200 VRB03KT P6SM SKC
     FM252000 25005KT P6SM SCT060=



000
FTUS42 KRAH 250522
TAFGSO
TAF
KGSO 250522Z 2506/2606 35004KT P6SM SKC
     FM251800 26007KT P6SM SCT060=



000
FTUS42 KRAH 250522
TAFFAY
TAF
KFAY 250522Z 2506/2606 VRB03KT P6SM SKC
     FM252000 25005KT P6SM SCT060=



000
FTUS42 KRAH 250522
TAFRWI
TAF
KRWI 250522Z 2506/2606 VRB03KT P6SM SKC
     FM252000 25005KT P6SM SCT060=



000
FTUS42 KRAH 250522
TAFINT
TAF
KINT 250522Z 2506/2606 35004KT P6SM SKC
     FM251800 26007KT P6SM SCT060=



000
FTUS42 KRAH 250522
TAFRDU
TAF
KRDU 250522Z 2506/2606 VRB03KT P6SM SKC
     FM251800 25005KT P6SM SCT060=



000
FTUS42 KRAH 250141 AAA
TAFRDU
TAF AMD
KRDU 250141Z 2502/2524 VRB03KT P6SM BKN200=



000
FTUS42 KRAH 250141 AAA
TAFGSO
TAF AMD
KGSO 250141Z 2502/2524 VRB03KT P6SM BKN200=



000
FTUS42 KRAH 242320
TAFRWI
TAF
KRWI 242320Z 2500/2524 VRB02KT P6SM SCT200=



000
FTUS42 KRAH 242320
TAFRDU
TAF
KRDU 242320Z 2500/2524 VRB03KT P6SM BKN200=



000
FTUS42 KRAH 242320
TAFFAY
TAF
KFAY 242320Z 2500/2524 VRB03KT P6SM SCT200=



000
FTUS42 KRAH 242320
TAFGSO
TAF
KGSO 242320Z 2500/2524 VRB03KT P6SM BKN200=



000
FTUS42 KRAH 242320
TAFINT
TAF
KINT 242320Z 2500/2524 VRB03KT P6SM BKN200=



000
FTUS42 KRAH 241720
TAFRWI
TAF
KRWI 241720Z 2418/2518 VRB05KT P6SM SCT180=



000
FTUS42 KRAH 241720
TAFRDU
TAF
KRDU 241720Z 2418/2518 VRB05KT P6SM SCT180=



000
FTUS42 KRAH 241720
TAFINT
TAF
KINT 241720Z 2418/2518 VRB05KT P6SM SCT180=



000
FTUS42 KRAH 241720
TAFGSO
TAF
KGSO 241720Z 2418/2518 VRB05KT P6SM SCT180=



000
FTUS42 KRAH 241720
TAFFAY
TAF
KFAY 241720Z 2418/2518 VRB05KT P6SM SCT180=



000
FTUS42 KRAH 241141
TAFGSO
TAF
KGSO 241141Z 2412/2512 28004KT P6SM BKN150=



000
FTUS42 KRAH 241141
TAFRWI
TAF
KRWI 241141Z 2412/2512 VRB04KT P6SM BKN150=



000
FTUS42 KRAH 241141
TAFFAY
TAF
KFAY 241141Z 2412/2512 VRB04KT P6SM BKN150=



000
FTUS42 KRAH 241141
TAFINT
TAF
KINT 241141Z 2412/2512 28004KT P6SM BKN150=



000
FTUS42 KRAH 241141
TAFRDU
TAF
KRDU 241141Z 2412/2512 27004KT P6SM BKN150=



000
FTUS42 KRAH 240907 AAA
TAFRDU
TAF AMD
KRDU 240907Z 2409/2506 27004KT P6SM BKN150=



000
FTUS42 KRAH 240907 AAA
TAFGSO
TAF AMD
KGSO 240907Z 2409/2506 25004KT P6SM BKN150=



000
FTUS42 KRAH 240520
TAFGSO
TAF
KGSO 240520Z 2406/2506 25004KT P6SM BKN150=



000
FTUS42 KRAH 240520
TAFRWI
TAF
KRWI 240520Z 2406/2506 VRB04KT P6SM BKN150=



000
FTUS42 KRAH 240520
TAFRDU
TAF
KRDU 240520Z 2406/2506 27004KT P6SM BKN150=



000
FTUS42 KRAH 240520
TAFINT
TAF
KINT 240520Z 2406/2506 25004KT P6SM BKN150=



000
FTUS42 KRAH 240520
TAFFAY
TAF
KFAY 240520Z 2406/2506 VRB04KT P6SM BKN150=



000
FTUS42 KRAH 240147 AAA
TAFGSO
TAF AMD
KGSO 240147Z 2402/2424 31010KT P6SM FEW250=



000
FTUS42 KRAH 240147 AAA
TAFRDU
TAF AMD
KRDU 240147Z 2402/2424 32004KT P6SM FEW250=



000
FTUS42 KRAH 240147 AAA
TAFGSO
TAF AMD
KGSO 240147Z 2402/2424 31010KT P6SM FEW250=



000
FTUS42 KRAH 240147 AAA
TAFRDU
TAF AMD
KRDU 240147Z 2402/2424 32004KT P6SM FEW250=



000
FTUS42 KRAH 232328
TAFRDU
TAF
KRDU 232328Z 2400/2424 30004KT P6SM FEW250=



000
FTUS42 KRAH 232328
TAFINT
TAF
KINT 232328Z 2400/2424 31005KT P6SM FEW250=



000
FTUS42 KRAH 232328
TAFGSO
TAF
KGSO 232328Z 2400/2424 32005KT P6SM FEW250=



000
FTUS42 KRAH 232328
TAFRWI
TAF
KRWI 232328Z 2400/2424 31005KT P6SM SKC=



000
FTUS42 KRAH 232328
TAFFAY
TAF
KFAY 232328Z 2400/2424 27004KT P6SM SKC=



000
FTUS42 KRAH 231720
TAFFAY
TAF
KFAY 231720Z 2318/2418 33010KT P6SM SKC
     FM232100 31004KT P6SM SKC=



000
FTUS42 KRAH 231720
TAFGSO
TAF
KGSO 231720Z 2318/2418 33010KT P6SM SKC
     FM232100 31004KT P6SM SKC=



000
FTUS42 KRAH 231720
TAFRDU
TAF
KRDU 231720Z 2318/2418 33010KT P6SM SKC
     FM232100 31004KT P6SM SKC=



000
FTUS42 KRAH 231720
TAFINT
TAF
KINT 231720Z 2318/2418 33010KT P6SM SKC
     FM232100 31004KT P6SM SKC=



000
FTUS42 KRAH 231720
TAFRWI
TAF
KRWI 231720Z 2318/2418 33010KT P6SM SKC
     FM232100 31004KT P6SM SKC=



000
FTUS42 KRAH 231554 AAA
TAFRWI
TAF AMD
KRWI 231554Z 2316/2412 33012KT P6SM SKC
     FM232100 31005KT P6SM SKC=



000
FTUS42 KRAH 231554 AAA
TAFFAY
TAF AMD
KFAY 231554Z 2316/2412 33012KT P6SM SKC
     FM232100 31005KT P6SM SKC=



000
FTUS42 KRAH 231553 AAA
TAFGSO
TAF AMD
KGSO 231553Z 2316/2412 33012KT P6SM SKC
     FM232100 31005KT P6SM SKC=



000
FTUS42 KRAH 231553 AAA
TAFINT
TAF AMD
KINT 231553Z 2316/2412 33012KT P6SM SKC
     FM232100 31005KT P6SM SKC=



000
FTUS42 KRAH 231553 AAA
TAFRDU
TAF AMD
KRDU 231553Z 2316/2412 33012KT P6SM SKC
     FM232100 31005KT P6SM SKC=



000
FTUS42 KRAH 231130
TAFINT
TAF
KINT 231130Z 2312/2412 33005KT P6SM SKC
     FM231500 31010G16KT P6SM SKC
     FM232100 31005KT P6SM SCT250=



000
FTUS42 KRAH 231130
TAFFAY
TAF
KFAY 231130Z 2312/2412 32005KT P6SM FEW060
     FM231500 31011G18KT P6SM SKC
     FM232100 30004KT P6SM SKC=



000
FTUS42 KRAH 231130
TAFRWI
TAF
KRWI 231130Z 2312/2412 33005KT P6SM SCT050
     FM231500 31011G20KT P6SM SKC
     FM232100 30005KT P6SM SKC=



000
FTUS42 KRAH 231130
TAFGSO
TAF
KGSO 231130Z 2312/2412 33007KT P6SM SKC
     FM231500 31010G16KT P6SM SKC
     FM232100 31005KT P6SM SCT250=



000
FTUS42 KRAH 231130
TAFRDU
TAF
KRDU 231130Z 2312/2412 30005KT P6SM FEW060
     FM231500 31011G18KT P6SM SKC
     FM232100 30004KT P6SM SCT250=



000
FTUS42 KRAH 231002 AAA
TAFGSO
TAF AMD
KGSO 231002Z 2310/2406 33007KT P6SM SKC
     FM231500 31011G16KT P6SM SKC
     FM232100 31006KT P6SM SCT250=



000
FTUS42 KRAH 231002 AAA
TAFGSO
TAF AMD
KGSO 231002Z 2310/2406 33007KT P6SM SKC
     FM231500 31011G16KT P6SM SKC
     FM232100 31006KT P6SM SCT250=



000
FTUS42 KRAH 230931 AAA
TAFRDU
TAF AMD
KRDU 230931Z 2310/2406 30005KT P6SM FEW060
     FM231500 31011G18KT P6SM SKC
     FM232100 30006KT P6SM SKC=



000
FTUS42 KRAH 230530
TAFGSO
TAF
KGSO 230530Z 2306/2406 33007KT P6SM SKC
     FM231500 31011G16KT P6SM SKC
     FM232100 31006KT P6SM SCT250=



000
FTUS42 KRAH 230530
TAFFAY
TAF
KFAY 230530Z 2306/2406 32005KT P6SM FEW060
     FM231500 31011G18KT P6SM SKC
     FM232100 30006KT P6SM SKC=



000
FTUS42 KRAH 230530
TAFINT
TAF
KINT 230530Z 2306/2406 33005KT P6SM SKC
     FM231500 31011G16KT P6SM SKC
     FM232100 31006KT P6SM SCT250=



000
FTUS42 KRAH 230530
TAFRDU
TAF
KRDU 230530Z 2306/2406 30005KT P6SM FEW060
     FM231500 31011G18KT P6SM SKC
     FM232100 30006KT P6SM SKC=



000
FTUS42 KRAH 230530
TAFRWI
TAF
KRWI 230530Z 2306/2406 33005KT P6SM SCT050
     FM231500 31011G20KT P6SM SKC
     FM232100 30006KT P6SM SKC=



000
FTUS42 KRAH 230150 AAA
TAFGSO
TAF AMD
KGSO 230150Z 2302/2324 33007KT P6SM SKC
     FM231500 31011G17KT P6SM SKC
     FM232100 31006KT P6SM SKC=



000
FTUS42 KRAH 230150 AAA
TAFRDU
TAF AMD
KRDU 230150Z 2302/2324 30005KT P6SM FEW060
     FM231500 31011G17KT P6SM SKC
     FM232100 30006KT P6SM SKC=



000
FTUS42 KRAH 230150 AAA
TAFRDU
TAF AMD
KRDU 230150Z 2302/2324 30005KT P6SM FEW060
     FM231500 31011G17KT P6SM SKC
     FM232100 30006KT P6SM SKC=



000
FTUS42 KRAH 230150 AAA
TAFGSO
TAF AMD
KGSO 230150Z 2302/2324 33007KT P6SM SKC
     FM231500 31011G17KT P6SM SKC
     FM232100 31006KT P6SM SKC=



000
FTUS42 KRAH 222337
TAFRDU
TAF
KRDU 222337Z 2300/2324 33005KT P6SM FEW060
     FM231500 31011G17KT P6SM SKC
     FM232100 30006KT P6SM SKC=



000
FTUS42 KRAH 222337
TAFGSO
TAF
KGSO 222337Z 2300/2324 33005KT P6SM SKC
     FM231500 31011G17KT P6SM SKC
     FM232100 31006KT P6SM SKC=



000
FTUS42 KRAH 222337
TAFRWI
TAF
KRWI 222337Z 2300/2324 33005KT P6SM SCT050
     FM231500 31011G17KT P6SM SKC
     FM232100 30006KT P6SM SKC=



000
FTUS42 KRAH 222337
TAFFAY
TAF
KFAY 222337Z 2300/2324 32005KT P6SM FEW060
     FM231500 31011G17KT P6SM SKC
     FM232100 30006KT P6SM SKC=



000
FTUS42 KRAH 222337
TAFINT
TAF
KINT 222337Z 2300/2324 33005KT P6SM SKC
     FM231500 31011G17KT P6SM SKC
     FM232100 31006KT P6SM SKC=



000
FTUS42 KRAH 222222 AAA
TAFRWI
TAF AMD
KRWI 222222Z 2222/2318 33009KT P6SM SCT035=



000
FTUS42 KRAH 222221 AAA
TAFFAY
TAF AMD
KFAY 222221Z 2222/2318 32008KT P6SM SCT060=



000
FTUS42 KRAH 222220 AAA
TAFGSO
TAF AMD
KGSO 222220Z 2222/2318 33008KT P6SM SKC=



000
FTUS42 KRAH 222220 AAA
TAFRDU
TAF AMD
KRDU 222220Z 2222/2318 33008KT P6SM SCT050=



    US Dept of Commerce
    National Oceanic and Atmospheric Administration
    National Weather Service
    1325 East West Highway
    Silver Spring, MD 20910
    Page Author: NWS Internet Services Team
Disclaimer
Information Quality
Credits
Glossary
Privacy Policy
Freedom of Information Act (FOIA)
About Us
Career Opportunities